sensor_id;sensor_type;location;lat;lon;timestamp;temperature;humidity
21037;DHT22;10677;50.942;4.028;2022-07-05T00:01:55;18.10;99.90
21037;DHT22;10677;50.942;4.028;2022-07-05T00:04:20;18.00;99.90
21037;DHT22;10677;50.942;4.028;2022-07-05T00:06:46;18.10;99.90
21037;DHT22;10677;50.942;4.028;2022-07-05T00:09:30;18.10;99.90
21037;DHT22;10677;50.942;4.028;2022-07-05T00:11:55;18.00;99.90
21037;DHT22;10677;50.942;4.028;2022-07-05T00:14:21;17.90;99.90
21037;DHT22;10677;50.942;4.028;2022-07-05T00:16:47;18.00;99.90
21037;DHT22;10677;50.942;4.028;2022-07-05T00:19:12;17.90;99.90
21037;DHT22;10677;50.942;4.028;2022-07-05T00:21:38;17.90;99.90
21037;DHT22;10677;50.942;4.028;2022-07-05T00:24:04;17.90;99.90
21037;DHT22;10677;50.942;4.028;2022-07-05T00:26:29;17.80;99.90
21037;DHT22;10677;50.942;4.028;2022-07-05T00:28:55;17.80;99.90
21037;DHT22;10677;50.942;4.028;2022-07-05T00:31:20;17.70;99.90
21037;DHT22;10677;50.942;4.028;2022-07-05T00:33:46;17.70;99.90
21037;DHT22;10677;50.942;4.028;2022-07-05T00:36:12;17.60;99.90
21037;DHT22;10677;50.942;4.028;2022-07-05T00:38:37;17.60;99.90
21037;DHT22;10677;50.942;4.028;2022-07-05T00:41:03;17.50;99.90
21037;DHT22;10677;50.942;4.028;2022-07-05T00:43:29;17.50;99.90
21037;DHT22;10677;50.942;4.028;2022-07-05T00:45:54;17.40;99.90
21037;DHT22;10677;50.942;4.028;2022-07-05T00:48:20;17.40;99.90
21037;DHT22;10677;50.942;4.028;2022-07-05T00:50:45;17.40;99.90
21037;DHT22;10677;50.942;4.028;2022-07-05T00:53:12;17.40;99.90
21037;DHT22;10677;50.942;4.028;2022-07-05T00:55:37;17.40;99.90
21037;DHT22;10677;50.942;4.028;2022-07-05T00:58:03;17.30;99.90
21037;DHT22;10677;50.942;4.028;2022-07-05T01:00:29;17.30;99.90
21037;DHT22;10677;50.942;4.028;2022-07-05T01:02:55;17.20;99.90
21037;DHT22;10677;50.942;4.028;2022-07-05T01:05:21;17.20;99.90
21037;DHT22;10677;50.942;4.028;2022-07-05T01:07:47;17.10;99.90
21037;DHT22;10677;50.942;4.028;2022-07-05T01:10:13;17.10;99.90
21037;DHT22;10677;50.942;4.028;2022-07-05T01:12:39;16.90;99.90
21037;DHT22;10677;50.942;4.028;2022-07-05T01:15:06;16.90;99.90
21037;DHT22;10677;50.942;4.028;2022-07-05T01:17:34;16.70;99.90
21037;DHT22;10677;50.942;4.028;2022-07-05T01:20:01;16.80;99.90
21037;DHT22;10677;50.942;4.028;2022-07-05T01:22:32;16.70;99.90
21037;DHT22;10677;50.942;4.028;2022-07-05T01:24:57;16.50;99.90
21037;DHT22;10677;50.942;4.028;2022-07-05T01:27:23;16.50;99.90
21037;DHT22;10677;50.942;4.028;2022-07-05T01:29:49;16.50;99.90
21037;DHT22;10677;50.942;4.028;2022-07-05T01:32:15;16.60;99.90
21037;DHT22;10677;50.942;4.028;2022-07-05T01:34:41;16.70;99.90
21037;DHT22;10677;50.942;4.028;2022-07-05T01:37:08;16.60;99.90
21037;DHT22;10677;50.942;4.028;2022-07-05T01:39:33;16.70;99.90
21037;DHT22;10677;50.942;4.028;2022-07-05T01:41:59;16.70;99.90
21037;DHT22;10677;50.942;4.028;2022-07-05T01:44:25;16.70;99.90
21037;DHT22;10677;50.942;4.028;2022-07-05T01:46:54;16.80;99.90
21037;DHT22;10677;50.942;4.028;2022-07-05T01:49:22;16.70;99.90
21037;DHT22;10677;50.942;4.028;2022-07-05T01:51:55;16.70;99.90
21037;DHT22;10677;50.942;4.028;2022-07-05T01:54:22;16.70;99.90
21037;DHT22;10677;50.942;4.028;2022-07-05T01:56:48;16.80;99.90
21037;DHT22;10677;50.942;4.028;2022-07-05T01:59:14;16.80;99.90
21037;DHT22;10677;50.942;4.028;2022-07-05T02:01:40;16.70;99.90
21037;DHT22;10677;50.942;4.028;2022-07-05T02:04:08;16.70;99.90
21037;DHT22;10677;50.942;4.028;2022-07-05T02:06:34;16.70;99.90
21037;DHT22;10677;50.942;4.028;2022-07-05T02:09:01;16.60;99.90
21037;DHT22;10677;50.942;4.028;2022-07-05T02:11:28;16.50;99.90
21037;DHT22;10677;50.942;4.028;2022-07-05T02:13:53;16.40;99.90
21037;DHT22;10677;50.942;4.028;2022-07-05T02:16:22;16.20;99.90
21037;DHT22;10677;50.942;4.028;2022-07-05T02:18:48;16.10;99.90
21037;DHT22;10677;50.942;4.028;2022-07-05T02:21:14;16.10;99.90
21037;DHT22;10677;50.942;4.028;2022-07-05T02:23:39;16.00;99.90
21037;DHT22;10677;50.942;4.028;2022-07-05T02:26:05;16.00;99.90
21037;DHT22;10677;50.942;4.028;2022-07-05T02:28:31;16.00;99.90
21037;DHT22;10677;50.942;4.028;2022-07-05T02:30:56;16.10;99.90
21037;DHT22;10677;50.942;4.028;2022-07-05T02:33:22;16.00;99.90
21037;DHT22;10677;50.942;4.028;2022-07-05T02:35:47;16.00;99.90
21037;DHT22;10677;50.942;4.028;2022-07-05T02:38:13;16.00;99.90
21037;DHT22;10677;50.942;4.028;2022-07-05T02:40:39;15.90;99.90
21037;DHT22;10677;50.942;4.028;2022-07-05T02:43:04;15.90;99.90
21037;DHT22;10677;50.942;4.028;2022-07-05T02:45:30;15.90;99.90
21037;DHT22;10677;50.942;4.028;2022-07-05T02:47:57;15.90;99.90
21037;DHT22;10677;50.942;4.028;2022-07-05T02:50:23;15.80;99.90
21037;DHT22;10677;50.942;4.028;2022-07-05T02:52:48;15.70;99.90
21037;DHT22;10677;50.942;4.028;2022-07-05T02:55:14;15.70;99.90
21037;DHT22;10677;50.942;4.028;2022-07-05T02:57:39;15.70;99.90
21037;DHT22;10677;50.942;4.028;2022-07-05T03:00:06;15.70;99.90
21037;DHT22;10677;50.942;4.028;2022-07-05T03:02:31;15.70;99.90
21037;DHT22;10677;50.942;4.028;2022-07-05T03:04:57;15.70;99.90
21037;DHT22;10677;50.942;4.028;2022-07-05T03:07:23;15.70;99.90
21037;DHT22;10677;50.942;4.028;2022-07-05T03:09:48;15.70;99.90
21037;DHT22;10677;50.942;4.028;2022-07-05T03:12:14;15.70;99.90
21037;DHT22;10677;50.942;4.028;2022-07-05T03:14:40;15.70;99.90
21037;DHT22;10677;50.942;4.028;2022-07-05T03:17:05;15.70;99.90
21037;DHT22;10677;50.942;4.028;2022-07-05T03:19:31;15.70;99.90
21037;DHT22;10677;50.942;4.028;2022-07-05T03:21:56;15.70;99.90
21037;DHT22;10677;50.942;4.028;2022-07-05T03:24:22;15.70;99.90
21037;DHT22;10677;50.942;4.028;2022-07-05T03:26:47;15.70;99.90
21037;DHT22;10677;50.942;4.028;2022-07-05T03:29:13;15.60;99.90
21037;DHT22;10677;50.942;4.028;2022-07-05T03:31:39;15.50;99.90
21037;DHT22;10677;50.942;4.028;2022-07-05T03:34:04;15.40;99.90
21037;DHT22;10677;50.942;4.028;2022-07-05T03:36:30;15.50;99.90
21037;DHT22;10677;50.942;4.028;2022-07-05T03:38:56;15.40;99.90
21037;DHT22;10677;50.942;4.028;2022-07-05T03:41:21;15.40;99.90
21037;DHT22;10677;50.942;4.028;2022-07-05T03:43:47;15.50;99.90
21037;DHT22;10677;50.942;4.028;2022-07-05T03:46:12;15.50;99.90
21037;DHT22;10677;50.942;4.028;2022-07-05T03:48:38;15.40;99.90
21037;DHT22;10677;50.942;4.028;2022-07-05T03:51:04;15.40;99.90
21037;DHT22;10677;50.942;4.028;2022-07-05T03:53:29;15.40;99.90
21037;DHT22;10677;50.942;4.028;2022-07-05T03:55:55;15.30;99.90
21037;DHT22;10677;50.942;4.028;2022-07-05T03:58:21;15.30;99.90
21037;DHT22;10677;50.942;4.028;2022-07-05T04:00:46;15.30;99.90
21037;DHT22;10677;50.942;4.028;2022-07-05T04:03:12;15.20;99.90
21037;DHT22;10677;50.942;4.028;2022-07-05T04:05:38;15.10;99.90
21037;DHT22;10677;50.942;4.028;2022-07-05T04:08:04;15.20;99.90
21037;DHT22;10677;50.942;4.028;2022-07-05T04:10:30;15.30;99.90
21037;DHT22;10677;50.942;4.028;2022-07-05T04:12:56;15.30;99.90
21037;DHT22;10677;50.942;4.028;2022-07-05T04:15:21;15.30;99.90
21037;DHT22;10677;50.942;4.028;2022-07-05T04:17:52;15.30;99.90
21037;DHT22;10677;50.942;4.028;2022-07-05T04:20:19;15.20;99.90
21037;DHT22;10677;50.942;4.028;2022-07-05T04:22:46;15.20;99.90
21037;DHT22;10677;50.942;4.028;2022-07-05T04:25:12;15.00;99.90
21037;DHT22;10677;50.942;4.028;2022-07-05T04:27:48;15.00;99.90
21037;DHT22;10677;50.942;4.028;2022-07-05T04:30:15;15.00;99.90
21037;DHT22;10677;50.942;4.028;2022-07-05T04:32:41;15.00;99.90
21037;DHT22;10677;50.942;4.028;2022-07-05T04:35:08;15.10;99.90
21037;DHT22;10677;50.942;4.028;2022-07-05T04:37:34;15.20;99.90
21037;DHT22;10677;50.942;4.028;2022-07-05T04:39:59;15.30;99.90
21037;DHT22;10677;50.942;4.028;2022-07-05T04:42:25;15.30;99.90
21037;DHT22;10677;50.942;4.028;2022-07-05T04:44:50;15.30;99.90
21037;DHT22;10677;50.942;4.028;2022-07-05T04:47:16;15.40;99.90
21037;DHT22;10677;50.942;4.028;2022-07-05T04:49:42;15.50;99.90
21037;DHT22;10677;50.942;4.028;2022-07-05T04:52:08;15.50;99.90
21037;DHT22;10677;50.942;4.028;2022-07-05T04:54:35;15.40;99.90
21037;DHT22;10677;50.942;4.028;2022-07-05T04:57:01;15.40;99.90
21037;DHT22;10677;50.942;4.028;2022-07-05T04:59:26;15.50;99.90
21037;DHT22;10677;50.942;4.028;2022-07-05T05:01:52;15.50;99.90
21037;DHT22;10677;50.942;4.028;2022-07-05T05:04:18;15.60;99.90
21037;DHT22;10677;50.942;4.028;2022-07-05T05:06:43;15.60;99.90
21037;DHT22;10677;50.942;4.028;2022-07-05T05:09:09;15.60;99.90
21037;DHT22;10677;50.942;4.028;2022-07-05T05:11:34;15.60;99.90
21037;DHT22;10677;50.942;4.028;2022-07-05T05:14:00;15.60;99.90
21037;DHT22;10677;50.942;4.028;2022-07-05T05:16:25;15.50;99.90
21037;DHT22;10677;50.942;4.028;2022-07-05T05:18:51;15.60;99.90
21037;DHT22;10677;50.942;4.028;2022-07-05T05:21:17;15.50;99.90
21037;DHT22;10677;50.942;4.028;2022-07-05T05:23:43;15.70;99.90
21037;DHT22;10677;50.942;4.028;2022-07-05T05:26:08;15.70;99.90
21037;DHT22;10677;50.942;4.028;2022-07-05T05:28:34;15.90;99.90
21037;DHT22;10677;50.942;4.028;2022-07-05T05:31:00;16.00;99.90
21037;DHT22;10677;50.942;4.028;2022-07-05T05:33:25;16.10;99.90
21037;DHT22;10677;50.942;4.028;2022-07-05T05:35:51;16.10;99.90
21037;DHT22;10677;50.942;4.028;2022-07-05T05:38:16;16.10;99.90
21037;DHT22;10677;50.942;4.028;2022-07-05T05:40:42;16.10;99.90
21037;DHT22;10677;50.942;4.028;2022-07-05T05:43:10;16.30;99.90
21037;DHT22;10677;50.942;4.028;2022-07-05T05:45:35;16.30;99.90
21037;DHT22;10677;50.942;4.028;2022-07-05T05:48:01;16.50;99.90
21037;DHT22;10677;50.942;4.028;2022-07-05T05:50:33;16.60;99.90
21037;DHT22;10677;50.942;4.028;2022-07-05T05:52:59;16.50;99.90
21037;DHT22;10677;50.942;4.028;2022-07-05T05:55:26;16.70;99.90
21037;DHT22;10677;50.942;4.028;2022-07-05T05:57:53;16.70;99.90
21037;DHT22;10677;50.942;4.028;2022-07-05T06:00:20;16.80;99.90
21037;DHT22;10677;50.942;4.028;2022-07-05T06:02:48;17.00;99.90
21037;DHT22;10677;50.942;4.028;2022-07-05T06:05:15;17.10;99.90
21037;DHT22;10677;50.942;4.028;2022-07-05T06:07:51;17.10;99.90
21037;DHT22;10677;50.942;4.028;2022-07-05T06:10:20;17.10;99.90
21037;DHT22;10677;50.942;4.028;2022-07-05T06:12:47;17.20;99.90
21037;DHT22;10677;50.942;4.028;2022-07-05T06:15:12;17.30;99.90
21037;DHT22;10677;50.942;4.028;2022-07-05T06:17:39;17.60;99.90
21037;DHT22;10677;50.942;4.028;2022-07-05T06:20:10;17.70;99.90
21037;DHT22;10677;50.942;4.028;2022-07-05T06:22:36;17.80;99.90
21037;DHT22;10677;50.942;4.028;2022-07-05T06:25:03;18.00;99.90
21037;DHT22;10677;50.942;4.028;2022-07-05T06:27:29;18.00;99.90
21037;DHT22;10677;50.942;4.028;2022-07-05T06:29:54;18.30;99.90
21037;DHT22;10677;50.942;4.028;2022-07-05T06:32:20;18.20;99.90
21037;DHT22;10677;50.942;4.028;2022-07-05T06:34:46;18.20;99.90
21037;DHT22;10677;50.942;4.028;2022-07-05T06:37:12;18.30;99.90
21037;DHT22;10677;50.942;4.028;2022-07-05T06:39:37;18.30;99.90
21037;DHT22;10677;50.942;4.028;2022-07-05T06:42:03;18.30;99.90
21037;DHT22;10677;50.942;4.028;2022-07-05T06:44:29;18.50;99.90
21037;DHT22;10677;50.942;4.028;2022-07-05T06:46:54;18.60;99.90
21037;DHT22;10677;50.942;4.028;2022-07-05T06:49:20;18.60;99.90
21037;DHT22;10677;50.942;4.028;2022-07-05T06:51:46;18.70;99.90
21037;DHT22;10677;50.942;4.028;2022-07-05T06:54:11;18.90;99.90
21037;DHT22;10677;50.942;4.028;2022-07-05T06:56:37;19.10;99.90
21037;DHT22;10677;50.942;4.028;2022-07-05T06:59:02;19.20;99.90
21037;DHT22;10677;50.942;4.028;2022-07-05T07:01:28;19.30;99.90
21037;DHT22;10677;50.942;4.028;2022-07-05T07:03:59;19.50;99.90
21037;DHT22;10677;50.942;4.028;2022-07-05T07:06:24;19.70;99.90
21037;DHT22;10677;50.942;4.028;2022-07-05T07:08:50;20.00;99.90
21037;DHT22;10677;50.942;4.028;2022-07-05T07:11:34;20.10;99.90
21037;DHT22;10677;50.942;4.028;2022-07-05T07:14:00;20.20;99.90
21037;DHT22;10677;50.942;4.028;2022-07-05T07:16:26;20.20;99.90
21037;DHT22;10677;50.942;4.028;2022-07-05T07:18:53;20.30;99.90
21037;DHT22;10677;50.942;4.028;2022-07-05T07:21:18;20.20;99.90
21037;DHT22;10677;50.942;4.028;2022-07-05T07:23:44;20.20;99.90
21037;DHT22;10677;50.942;4.028;2022-07-05T07:26:09;20.30;99.90
21037;DHT22;10677;50.942;4.028;2022-07-05T07:28:35;20.20;99.90
21037;DHT22;10677;50.942;4.028;2022-07-05T07:31:01;20.30;99.90
21037;DHT22;10677;50.942;4.028;2022-07-05T07:33:26;20.40;99.90
21037;DHT22;10677;50.942;4.028;2022-07-05T07:35:52;20.40;99.90
21037;DHT22;10677;50.942;4.028;2022-07-05T07:38:18;20.50;99.90
21037;DHT22;10677;50.942;4.028;2022-07-05T07:40:44;20.70;99.90
21037;DHT22;10677;50.942;4.028;2022-07-05T07:43:09;20.80;99.90
21037;DHT22;10677;50.942;4.028;2022-07-05T07:45:35;20.90;99.90
21037;DHT22;10677;50.942;4.028;2022-07-05T07:48:00;20.90;99.90
21037;DHT22;10677;50.942;4.028;2022-07-05T07:50:26;20.80;99.90
21037;DHT22;10677;50.942;4.028;2022-07-05T07:52:52;20.50;99.90
21037;DHT22;10677;50.942;4.028;2022-07-05T07:55:17;20.50;99.90
21037;DHT22;10677;50.942;4.028;2022-07-05T07:57:43;20.60;99.90
21037;DHT22;10677;50.942;4.028;2022-07-05T08:00:09;20.50;99.90
21037;DHT22;10677;50.942;4.028;2022-07-05T08:02:35;20.50;99.90
21037;DHT22;10677;50.942;4.028;2022-07-05T08:05:00;20.40;99.90
21037;DHT22;10677;50.942;4.028;2022-07-05T08:07:27;20.50;99.90
21037;DHT22;10677;50.942;4.028;2022-07-05T08:09:53;20.20;99.90
21037;DHT22;10677;50.942;4.028;2022-07-05T08:12:19;20.10;99.90
21037;DHT22;10677;50.942;4.028;2022-07-05T08:14:45;20.40;99.90
21037;DHT22;10677;50.942;4.028;2022-07-05T08:17:11;20.80;99.90
21037;DHT22;10677;50.942;4.028;2022-07-05T08:19:37;20.80;99.90
21037;DHT22;10677;50.942;4.028;2022-07-05T08:22:22;20.80;99.90
21037;DHT22;10677;50.942;4.028;2022-07-05T08:24:48;21.10;99.90
21037;DHT22;10677;50.942;4.028;2022-07-05T08:27:14;21.00;99.90
21037;DHT22;10677;50.942;4.028;2022-07-05T08:29:41;20.70;99.90
21037;DHT22;10677;50.942;4.028;2022-07-05T08:32:07;20.10;99.90
21037;DHT22;10677;50.942;4.028;2022-07-05T08:34:33;20.10;99.90
21037;DHT22;10677;50.942;4.028;2022-07-05T08:36:59;20.30;99.90
21037;DHT22;10677;50.942;4.028;2022-07-05T08:39:25;20.60;99.90
21037;DHT22;10677;50.942;4.028;2022-07-05T08:41:51;20.70;99.90
21037;DHT22;10677;50.942;4.028;2022-07-05T08:44:22;20.80;99.90
21037;DHT22;10677;50.942;4.028;2022-07-05T08:46:49;21.10;99.90
21037;DHT22;10677;50.942;4.028;2022-07-05T08:49:22;21.20;99.90
21037;DHT22;10677;50.942;4.028;2022-07-05T08:51:49;21.50;99.90
21037;DHT22;10677;50.942;4.028;2022-07-05T08:54:16;21.60;99.90
21037;DHT22;10677;50.942;4.028;2022-07-05T08:56:42;21.70;99.90
21037;DHT22;10677;50.942;4.028;2022-07-05T08:59:08;22.10;99.90
21037;DHT22;10677;50.942;4.028;2022-07-05T09:01:35;22.20;99.90
21037;DHT22;10677;50.942;4.028;2022-07-05T09:04:04;22.30;99.90
21037;DHT22;10677;50.942;4.028;2022-07-05T09:06:32;22.10;99.90
21037;DHT22;10677;50.942;4.028;2022-07-05T09:09:01;21.80;99.90
21037;DHT22;10677;50.942;4.028;2022-07-05T09:11:34;21.50;99.90
21037;DHT22;10677;50.942;4.028;2022-07-05T09:14:03;21.70;99.90
21037;DHT22;10677;50.942;4.028;2022-07-05T09:16:30;21.80;99.90
21037;DHT22;10677;50.942;4.028;2022-07-05T09:19:05;22.00;99.90
21037;DHT22;10677;50.942;4.028;2022-07-05T09:21:30;22.20;99.90
21037;DHT22;10677;50.942;4.028;2022-07-05T09:24:01;22.70;99.90
21037;DHT22;10677;50.942;4.028;2022-07-05T09:26:38;22.40;99.90
21037;DHT22;10677;50.942;4.028;2022-07-05T09:29:09;22.20;99.90
21037;DHT22;10677;50.942;4.028;2022-07-05T09:31:36;22.40;99.90
21037;DHT22;10677;50.942;4.028;2022-07-05T09:34:13;22.40;99.90
21037;DHT22;10677;50.942;4.028;2022-07-05T09:36:56;22.70;99.90
21037;DHT22;10677;50.942;4.028;2022-07-05T09:42:22;23.00;99.90
21037;DHT22;10677;50.942;4.028;2022-07-05T09:44:55;23.10;99.90
21037;DHT22;10677;50.942;4.028;2022-07-05T09:47:27;23.20;99.90
21037;DHT22;10677;50.942;4.028;2022-07-05T09:49:54;23.10;99.90
21037;DHT22;10677;50.942;4.028;2022-07-05T09:52:30;23.10;99.90
21037;DHT22;10677;50.942;4.028;2022-07-05T09:55:01;22.70;99.90
21037;DHT22;10677;50.942;4.028;2022-07-05T09:57:27;22.90;99.90
21037;DHT22;10677;50.942;4.028;2022-07-05T10:00:01;23.30;99.90
21037;DHT22;10677;50.942;4.028;2022-07-05T10:02:41;23.30;99.90
21037;DHT22;10677;50.942;4.028;2022-07-05T10:05:15;23.30;99.90
21037;DHT22;10677;50.942;4.028;2022-07-05T10:07:43;23.40;99.90
21037;DHT22;10677;50.942;4.028;2022-07-05T10:10:14;23.50;99.90
21037;DHT22;10677;50.942;4.028;2022-07-05T10:12:43;23.70;99.90
21037;DHT22;10677;50.942;4.028;2022-07-05T10:15:11;23.50;99.90
21037;DHT22;10677;50.942;4.028;2022-07-05T10:17:40;23.40;99.90
21037;DHT22;10677;50.942;4.028;2022-07-05T10:20:12;23.10;99.90
21037;DHT22;10677;50.942;4.028;2022-07-05T10:22:40;23.30;99.90
21037;DHT22;10677;50.942;4.028;2022-07-05T10:25:06;23.50;99.90
21037;DHT22;10677;50.942;4.028;2022-07-05T10:27:32;23.80;99.90
21037;DHT22;10677;50.942;4.028;2022-07-05T10:30:01;24.20;99.90
21037;DHT22;10677;50.942;4.028;2022-07-05T10:32:28;24.30;99.90
21037;DHT22;10677;50.942;4.028;2022-07-05T10:34:55;23.70;99.90
21037;DHT22;10677;50.942;4.028;2022-07-05T10:37:25;23.10;99.90
21037;DHT22;10677;50.942;4.028;2022-07-05T10:39:53;22.50;99.90
21037;DHT22;10677;50.942;4.028;2022-07-05T10:42:20;22.20;99.90
21037;DHT22;10677;50.942;4.028;2022-07-05T10:44:45;22.10;99.90
21037;DHT22;10677;50.942;4.028;2022-07-05T10:47:11;22.00;99.90
21037;DHT22;10677;50.942;4.028;2022-07-05T10:49:39;22.00;99.90
21037;DHT22;10677;50.942;4.028;2022-07-05T10:52:05;21.80;99.90
21037;DHT22;10677;50.942;4.028;2022-07-05T10:55:17;21.60;99.90
21037;DHT22;10677;50.942;4.028;2022-07-05T10:57:43;21.60;99.90
21037;DHT22;10677;50.942;4.028;2022-07-05T11:00:10;21.80;99.90
21037;DHT22;10677;50.942;4.028;2022-07-05T11:02:37;22.10;99.90
21037;DHT22;10677;50.942;4.028;2022-07-05T11:05:03;22.40;99.90
21037;DHT22;10677;50.942;4.028;2022-07-05T11:10:23;22.40;99.90
21037;DHT22;10677;50.942;4.028;2022-07-05T11:12:48;22.40;99.90
21037;DHT22;10677;50.942;4.028;2022-07-05T11:15:14;22.20;99.90
21037;DHT22;10677;50.942;4.028;2022-07-05T11:17:40;22.50;99.90
21037;DHT22;10677;50.942;4.028;2022-07-05T11:20:09;22.60;99.90
21037;DHT22;10677;50.942;4.028;2022-07-05T11:22:40;22.70;99.90
21037;DHT22;10677;50.942;4.028;2022-07-05T11:25:08;23.10;99.90
21037;DHT22;10677;50.942;4.028;2022-07-05T11:27:36;23.10;99.90
21037;DHT22;10677;50.942;4.028;2022-07-05T11:30:02;22.80;99.90
21037;DHT22;10677;50.942;4.028;2022-07-05T11:34:54;23.10;99.90
21037;DHT22;10677;50.942;4.028;2022-07-05T11:42:35;22.40;99.90
21037;DHT22;10677;50.942;4.028;2022-07-05T11:45:05;22.00;99.90
21037;DHT22;10677;50.942;4.028;2022-07-05T11:47:31;22.20;99.90
21037;DHT22;10677;50.942;4.028;2022-07-05T11:49:57;22.10;99.90
21037;DHT22;10677;50.942;4.028;2022-07-05T11:54:53;22.00;99.90
21037;DHT22;10677;50.942;4.028;2022-07-05T11:57:19;22.10;99.90
21037;DHT22;10677;50.942;4.028;2022-07-05T11:59:45;22.10;99.90
21037;DHT22;10677;50.942;4.028;2022-07-05T12:02:11;22.20;99.90
21037;DHT22;10677;50.942;4.028;2022-07-05T12:04:37;22.30;99.90
21037;DHT22;10677;50.942;4.028;2022-07-05T12:07:03;22.40;99.90
21037;DHT22;10677;50.942;4.028;2022-07-05T12:09:30;22.80;99.90
21037;DHT22;10677;50.942;4.028;2022-07-05T12:12:20;23.30;99.90
21037;DHT22;10677;50.942;4.028;2022-07-05T12:15:05;23.00;99.90
21037;DHT22;10677;50.942;4.028;2022-07-05T12:17:34;22.60;99.90
21037;DHT22;10677;50.942;4.028;2022-07-05T12:20:00;22.40;99.90
21037;DHT22;10677;50.942;4.028;2022-07-05T12:24:55;22.20;99.90
21037;DHT22;10677;50.942;4.028;2022-07-05T12:27:20;22.10;99.90
21037;DHT22;10677;50.942;4.028;2022-07-05T12:29:46;22.10;99.90
21037;DHT22;10677;50.942;4.028;2022-07-05T12:32:12;22.10;99.90
21037;DHT22;10677;50.942;4.028;2022-07-05T12:34:37;22.30;99.90
21037;DHT22;10677;50.942;4.028;2022-07-05T12:37:03;22.20;99.90
21037;DHT22;10677;50.942;4.028;2022-07-05T12:39:30;22.10;99.90
21037;DHT22;10677;50.942;4.028;2022-07-05T12:41:55;22.20;99.90
21037;DHT22;10677;50.942;4.028;2022-07-05T12:44:21;22.70;99.90
21037;DHT22;10677;50.942;4.028;2022-07-05T12:46:48;22.80;99.90
21037;DHT22;10677;50.942;4.028;2022-07-05T12:49:18;23.10;99.90
21037;DHT22;10677;50.942;4.028;2022-07-05T12:51:44;23.30;99.90
21037;DHT22;10677;50.942;4.028;2022-07-05T12:54:23;23.30;99.90
21037;DHT22;10677;50.942;4.028;2022-07-05T12:57:07;22.80;99.90
21037;DHT22;10677;50.942;4.028;2022-07-05T13:00:07;22.70;99.90
21037;DHT22;10677;50.942;4.028;2022-07-05T13:02:42;22.50;99.90
21037;DHT22;10677;50.942;4.028;2022-07-05T13:05:09;22.80;99.90
21037;DHT22;10677;50.942;4.028;2022-07-05T13:07:43;22.90;99.90
21037;DHT22;10677;50.942;4.028;2022-07-05T13:10:16;22.70;99.90
21037;DHT22;10677;50.942;4.028;2022-07-05T13:12:42;22.80;99.90
21037;DHT22;10677;50.942;4.028;2022-07-05T13:15:09;23.10;99.90
21037;DHT22;10677;50.942;4.028;2022-07-05T13:17:35;22.80;99.90
21037;DHT22;10677;50.942;4.028;2022-07-05T13:20:00;22.80;99.90
21037;DHT22;10677;50.942;4.028;2022-07-05T13:22:28;22.90;99.90
21037;DHT22;10677;50.942;4.028;2022-07-05T13:24:54;23.30;99.90
21037;DHT22;10677;50.942;4.028;2022-07-05T13:27:20;23.50;99.90
21037;DHT22;10677;50.942;4.028;2022-07-05T13:29:45;24.10;99.90
21037;DHT22;10677;50.942;4.028;2022-07-05T13:32:11;25.20;99.90
21037;DHT22;10677;50.942;4.028;2022-07-05T13:34:37;25.60;99.90
21037;DHT22;10677;50.942;4.028;2022-07-05T13:37:03;26.50;99.90
21037;DHT22;10677;50.942;4.028;2022-07-05T13:39:28;27.20;99.90
21037;DHT22;10677;50.942;4.028;2022-07-05T13:41:55;25.20;99.90
21037;DHT22;10677;50.942;4.028;2022-07-05T13:44:21;25.10;99.90
21037;DHT22;10677;50.942;4.028;2022-07-05T13:46:47;25.60;99.90
21037;DHT22;10677;50.942;4.028;2022-07-05T13:49:13;25.30;99.90
21037;DHT22;10677;50.942;4.028;2022-07-05T13:51:39;24.10;99.90
21037;DHT22;10677;50.942;4.028;2022-07-05T13:54:04;24.30;99.90
21037;DHT22;10677;50.942;4.028;2022-07-05T13:56:30;24.30;99.90
21037;DHT22;10677;50.942;4.028;2022-07-05T13:59:01;24.00;99.90
21037;DHT22;10677;50.942;4.028;2022-07-05T14:01:27;23.90;99.90
21037;DHT22;10677;50.942;4.028;2022-07-05T14:03:54;24.70;99.90
21037;DHT22;10677;50.942;4.028;2022-07-05T14:06:22;25.40;99.90
21037;DHT22;10677;50.942;4.028;2022-07-05T14:08:47;26.50;99.90
21037;DHT22;10677;50.942;4.028;2022-07-05T14:11:13;26.60;99.90
21037;DHT22;10677;50.942;4.028;2022-07-05T14:13:39;27.20;99.90
21037;DHT22;10677;50.942;4.028;2022-07-05T14:16:05;26.80;99.90
21037;DHT22;10677;50.942;4.028;2022-07-05T14:18:31;26.90;99.90
21037;DHT22;10677;50.942;4.028;2022-07-05T14:20:56;27.50;99.90
21037;DHT22;10677;50.942;4.028;2022-07-05T14:23:22;27.30;99.90
21037;DHT22;10677;50.942;4.028;2022-07-05T14:25:48;28.10;99.90
21037;DHT22;10677;50.942;4.028;2022-07-05T14:28:14;28.20;99.90
21037;DHT22;10677;50.942;4.028;2022-07-05T14:30:41;27.00;99.90
21037;DHT22;10677;50.942;4.028;2022-07-05T14:33:09;26.60;99.90
21037;DHT22;10677;50.942;4.028;2022-07-05T14:35:35;26.60;99.90
21037;DHT22;10677;50.942;4.028;2022-07-05T14:38:01;25.80;99.90
21037;DHT22;10677;50.942;4.028;2022-07-05T14:40:27;26.00;99.90
21037;DHT22;10677;50.942;4.028;2022-07-05T14:42:53;27.40;99.90
21037;DHT22;10677;50.942;4.028;2022-07-05T14:45:20;27.60;99.90
21037;DHT22;10677;50.942;4.028;2022-07-05T14:47:46;27.60;99.90
21037;DHT22;10677;50.942;4.028;2022-07-05T14:50:13;26.60;99.90
21037;DHT22;10677;50.942;4.028;2022-07-05T14:52:40;27.10;99.90
21037;DHT22;10677;50.942;4.028;2022-07-05T14:55:06;26.50;99.90
21037;DHT22;10677;50.942;4.028;2022-07-05T14:57:32;27.10;99.90
21037;DHT22;10677;50.942;4.028;2022-07-05T14:59:58;28.00;99.90
21037;DHT22;10677;50.942;4.028;2022-07-05T15:02:23;27.10;99.90
21037;DHT22;10677;50.942;4.028;2022-07-05T15:04:49;26.10;99.90
21037;DHT22;10677;50.942;4.028;2022-07-05T15:07:15;26.00;99.90
21037;DHT22;10677;50.942;4.028;2022-07-05T15:09:41;26.60;99.90
21037;DHT22;10677;50.942;4.028;2022-07-05T15:12:07;25.60;99.90
21037;DHT22;10677;50.942;4.028;2022-07-05T15:14:32;25.60;99.90
21037;DHT22;10677;50.942;4.028;2022-07-05T15:16:58;26.20;99.90
21037;DHT22;10677;50.942;4.028;2022-07-05T15:19:24;26.90;99.90
21037;DHT22;10677;50.942;4.028;2022-07-05T15:21:50;27.00;99.90
21037;DHT22;10677;50.942;4.028;2022-07-05T15:24:15;27.10;99.90
21037;DHT22;10677;50.942;4.028;2022-07-05T15:26:45;27.30;99.90
21037;DHT22;10677;50.942;4.028;2022-07-05T15:29:10;26.90;99.90
21037;DHT22;10677;50.942;4.028;2022-07-05T15:31:37;25.30;99.90
21037;DHT22;10677;50.942;4.028;2022-07-05T15:34:03;25.00;99.90
21037;DHT22;10677;50.942;4.028;2022-07-05T15:36:29;26.60;99.90
21037;DHT22;10677;50.942;4.028;2022-07-05T15:38:58;26.80;99.90
21037;DHT22;10677;50.942;4.028;2022-07-05T15:41:24;27.20;99.90
21037;DHT22;10677;50.942;4.028;2022-07-05T15:43:49;26.50;99.90
21037;DHT22;10677;50.942;4.028;2022-07-05T15:46:15;26.40;99.90
21037;DHT22;10677;50.942;4.028;2022-07-05T15:48:41;26.80;99.90